Back to Top

Language: 

My Weather Underground Personal Weather Station Historical Data with Graphs...

Delerius Weather Station Historical Data
Daily Summary for April 15, 2017 Units:  Both    English   Metric
« Previous Day
Next Day »
Daily Weekly Monthly Yearly Custom
  High: Low: Average:
Temperature: 55.0 °F /  12.8 °C 40.5 °F /  4.7 °C 46.2 °F /  7.9 °C
Dew Point: 43.4 °F /  6.3 °C 34.5 °F /  1.4 °C 38.1 °F /  3.4 °C
Humidity: 89 % 53 % 74 %
Wind Speed: 20.0 mph /  32.2 km/h - 10.4 mph /  16.7 km/h
Wind Gust: 35.0 mph /  56.3 km/h - -
Wind:- - WNW
Pressure: 30.14 in /  1020.5 hPa 29.95 in /  1014.1 hPa -
Precipitation: 0.00 in /  0 mm    
Historical Graphs
 
 
Tabular Data for April 15, 2017
Time Temperature Dew Point Pressure Wind Wind Speed Wind Gust Humidity Rainfall Rate (Hourly) solar Conditions
00:04 43.0 °F /  6.1 °C 38.8 °F /  3.8 °C 29.95 in /  1014.1 hPa WNW 8.0 mph /  12.9 km/h 19.0 mph /  30.6 km/h 85 % 0.00 in /  0 mm 0 W/m2
00:09 43.0 °F /  6.1 °C 38.8 °F /  3.8 °C 29.95 in /  1014.1 hPa WNW 7.0 mph /  11.3 km/h 13.0 mph /  20.9 km/h 85 % 0.00 in /  0 mm 0 W/m2
00:14 42.8 °F /  6 °C 38.6 °F /  3.7 °C 29.95 in /  1014.1 hPa WNW 7.0 mph /  11.3 km/h 13.0 mph /  20.9 km/h 85 % 0.00 in /  0 mm 0 W/m2
00:19 42.6 °F /  5.9 °C 38.4 °F /  3.6 °C 29.95 in /  1014.1 hPa WNW 6.0 mph /  9.7 km/h 11.0 mph /  17.7 km/h 85 % 0.00 in /  0 mm 0 W/m2
00:24 42.4 °F /  5.8 °C 37.9 °F /  3.3 °C 29.95 in /  1014.1 hPa West 6.0 mph /  9.7 km/h 12.0 mph /  19.3 km/h 84 % 0.00 in /  0 mm 0 W/m2
00:29 42.3 °F /  5.7 °C 37.8 °F /  3.2 °C 29.95 in /  1014.1 hPa West 6.0 mph /  9.7 km/h 12.0 mph /  19.3 km/h 84 % 0.00 in /  0 mm 0 W/m2
00:34 42.1 °F /  5.6 °C 37.6 °F /  3.1 °C 29.95 in /  1014.1 hPa West 6.0 mph /  9.7 km/h 12.0 mph /  19.3 km/h 84 % 0.00 in /  0 mm 0 W/m2
00:39 42.1 °F /  5.6 °C 37.6 °F /  3.1 °C 29.95 in /  1014.1 hPa West 6.0 mph /  9.7 km/h 13.0 mph /  20.9 km/h 84 % 0.00 in /  0 mm 0 W/m2
00:44 41.9 °F /  5.5 °C 37.7 °F /  3.2 °C 29.95 in /  1014.1 hPa West 6.0 mph /  9.7 km/h 13.0 mph /  20.9 km/h 85 % 0.00 in /  0 mm 0 W/m2
00:49 41.7 °F /  5.4 °C 37.5 °F /  3.1 °C 29.95 in /  1014.1 hPa WNW 6.0 mph /  9.7 km/h 12.0 mph /  19.3 km/h 85 % 0.00 in /  0 mm 0 W/m2
00:54 41.7 °F /  5.4 °C 37.5 °F /  3.1 °C 29.95 in /  1014.1 hPa WNW 7.0 mph /  11.3 km/h 14.0 mph /  22.5 km/h 85 % 0.00 in /  0 mm 0 W/m2
00:59 41.9 °F /  5.5 °C 37.7 °F /  3.2 °C 29.95 in /  1014.1 hPa West 7.0 mph /  11.3 km/h 14.0 mph /  22.5 km/h 85 % 0.00 in /  0 mm 0 W/m2
01:04 42.1 °F /  5.6 °C 38.2 °F /  3.4 °C 29.95 in /  1014.1 hPa West 6.0 mph /  9.7 km/h 11.0 mph /  17.7 km/h 86 % 0.00 in /  0 mm 5 W/m2
01:09 42.1 °F /  5.6 °C 38.2 °F /  3.4 °C 29.95 in /  1014.1 hPa West 8.0 mph /  12.9 km/h 14.0 mph /  22.5 km/h 86 % 0.00 in /  0 mm 9 W/m2
01:14 42.1 °F /  5.6 °C 38.5 °F /  3.6 °C 29.95 in /  1014.1 hPa WNW 9.0 mph /  14.5 km/h 18.0 mph /  29 km/h 87 % 0.00 in /  0 mm 16 W/m2
01:19 42.1 °F /  5.6 °C 38.8 °F /  3.8 °C 29.96 in /  1014.4 hPa WNW 10.0 mph /  16.1 km/h 18.0 mph /  29 km/h 88 % 0.00 in /  0 mm 23 W/m2
01:24 42.1 °F /  5.6 °C 38.8 °F /  3.8 °C 29.95 in /  1014.1 hPa WNW 10.0 mph /  16.1 km/h 18.0 mph /  29 km/h 88 % 0.00 in /  0 mm 19 W/m2
01:29 41.7 °F /  5.4 °C 38.7 °F /  3.7 °C 29.95 in /  1014.1 hPa West 11.0 mph /  17.7 km/h 19.0 mph /  30.6 km/h 89 % 0.00 in /  0 mm 19 W/m2
01:34 41.7 °F /  5.4 °C 38.7 °F /  3.7 °C 29.95 in /  1014.1 hPa West 11.0 mph /  17.7 km/h 19.0 mph /  30.6 km/h 89 % 0.00 in /  0 mm 23 W/m2
01:39 41.7 °F /  5.4 °C 38.7 °F /  3.7 °C 29.95 in /  1014.1 hPa West 11.0 mph /  17.7 km/h 16.0 mph /  25.7 km/h 89 % 0.00 in /  0 mm 26 W/m2
01:44 41.7 °F /  5.4 °C 38.7 °F /  3.7 °C 29.95 in /  1014.1 hPa West 11.0 mph /  17.7 km/h 18.0 mph /  29 km/h 89 % 0.00 in /  0 mm 30 W/m2
01:49 41.9 °F /  5.5 °C 38.6 °F /  3.7 °C 29.95 in /  1014.1 hPa West 12.0 mph /  19.3 km/h 22.0 mph /  35.4 km/h 88 % 0.00 in /  0 mm 35 W/m2
01:54 42.1 °F /  5.6 °C 38.8 °F /  3.8 °C 29.95 in /  1014.1 hPa West 12.0 mph /  19.3 km/h 22.0 mph /  35.4 km/h 88 % 0.00 in /  0 mm 40 W/m2
02:00 42.1 °F /  5.6 °C 38.5 °F /  3.6 °C 29.95 in /  1014.1 hPa West 11.0 mph /  17.7 km/h 20.0 mph /  32.2 km/h 87 % 0.00 in /  0 mm 49 W/m2
02:05 42.3 °F /  5.7 °C 38.4 °F /  3.6 °C 29.95 in /  1014.1 hPa West 12.0 mph /  19.3 km/h 19.0 mph /  30.6 km/h 86 % 0.00 in /  0 mm 63 W/m2
02:10 42.3 °F /  5.7 °C 38.4 °F /  3.6 °C 29.95 in /  1014.1 hPa West 12.0 mph /  19.3 km/h 20.0 mph /  32.2 km/h 86 % 0.00 in /  0 mm 88 W/m2
02:15 42.4 °F /  5.8 °C 38.5 °F /  3.6 °C 29.95 in /  1014.1 hPa West 12.0 mph /  19.3 km/h 22.0 mph /  35.4 km/h 86 % 0.00 in /  0 mm 81 W/m2
02:20 42.6 °F /  5.9 °C 38.4 °F /  3.6 °C 29.96 in /  1014.4 hPa West 13.0 mph /  20.9 km/h 23.0 mph /  37 km/h 85 % 0.00 in /  0 mm 86 W/m2
02:25 43.0 °F /  6.1 °C 38.5 °F /  3.6 °C 29.96 in /  1014.4 hPa West 15.0 mph /  24.1 km/h 24.0 mph /  38.6 km/h 84 % 0.00 in /  0 mm 102 W/m2
02:30 43.2 °F /  6.2 °C 38.7 °F /  3.7 °C 29.96 in /  1014.4 hPa West 15.0 mph /  24.1 km/h 25.0 mph /  40.2 km/h 84 % 0.00 in /  0 mm 90 W/m2
02:35 43.3 °F /  6.3 °C 38.5 °F /  3.6 °C 29.97 in /  1014.8 hPa West 14.0 mph /  22.5 km/h 25.0 mph /  40.2 km/h 83 % 0.00 in /  0 mm 90 W/m2
02:40 43.3 °F /  6.3 °C 38.5 °F /  3.6 °C 29.97 in /  1014.8 hPa WNW 15.0 mph /  24.1 km/h 25.0 mph /  40.2 km/h 83 % 0.00 in /  0 mm 100 W/m2
02:45 43.5 °F /  6.4 °C 38.7 °F /  3.7 °C 29.97 in /  1014.8 hPa WNW 13.0 mph /  20.9 km/h 25.0 mph /  40.2 km/h 83 % 0.00 in /  0 mm 128 W/m2
02:50 43.7 °F /  6.5 °C 38.9 °F /  3.8 °C 29.97 in /  1014.8 hPa WNW 13.0 mph /  20.9 km/h 23.0 mph /  37 km/h 83 % 0.00 in /  0 mm 149 W/m2
02:55 43.9 °F /  6.6 °C 38.7 °F /  3.7 °C 29.97 in /  1014.8 hPa WNW 14.0 mph /  22.5 km/h 24.0 mph /  38.6 km/h 82 % 0.00 in /  0 mm 156 W/m2
03:00 44.2 °F /  6.8 °C 39.1 °F /  3.9 °C 29.97 in /  1014.8 hPa WNW 15.0 mph /  24.1 km/h 28.0 mph /  45.1 km/h 82 % 0.00 in /  0 mm 155 W/m2
03:05 44.2 °F /  6.8 °C 38.8 °F /  3.8 °C 29.98 in /  1015.1 hPa WNW 14.0 mph /  22.5 km/h 28.0 mph /  45.1 km/h 81 % 0.00 in /  0 mm 155 W/m2
03:10 44.4 °F /  6.9 °C 39.0 °F /  3.9 °C 29.98 in /  1015.1 hPa WNW 13.0 mph /  20.9 km/h 22.0 mph /  35.4 km/h 81 % 0.00 in /  0 mm 153 W/m2
03:15 44.4 °F /  6.9 °C 39.0 °F /  3.9 °C 29.98 in /  1015.1 hPa WNW 13.0 mph /  20.9 km/h 20.0 mph /  32.2 km/h 81 % 0.00 in /  0 mm 165 W/m2
03:20 44.6 °F /  7 °C 39.1 °F /  3.9 °C 29.98 in /  1015.1 hPa WNW 14.0 mph /  22.5 km/h 23.0 mph /  37 km/h 81 % 0.00 in /  0 mm 167 W/m2
03:25 44.8 °F /  7.1 °C 39.0 °F /  3.9 °C 29.99 in /  1015.5 hPa WNW 15.0 mph /  24.1 km/h 25.0 mph /  40.2 km/h 80 % 0.00 in /  0 mm 151 W/m2
03:30 44.8 °F /  7.1 °C 39.0 °F /  3.9 °C 29.98 in /  1015.1 hPa WNW 14.0 mph /  22.5 km/h 25.0 mph /  40.2 km/h 80 % 0.00 in /  0 mm 139 W/m2
03:35 44.8 °F /  7.1 °C 39.0 °F /  3.9 °C 29.99 in /  1015.5 hPa WNW 13.0 mph /  20.9 km/h 21.0 mph /  33.8 km/h 80 % 0.00 in /  0 mm 151 W/m2
03:40 44.8 °F /  7.1 °C 39.0 °F /  3.9 °C 29.98 in /  1015.1 hPa WNW 12.0 mph /  19.3 km/h 20.0 mph /  32.2 km/h 80 % 0.00 in /  0 mm 163 W/m2
03:45 45.0 °F /  7.2 °C 38.8 °F /  3.8 °C 29.98 in /  1015.1 hPa WNW 12.0 mph /  19.3 km/h 21.0 mph /  33.8 km/h 79 % 0.00 in /  0 mm 153 W/m2
03:50 45.0 °F /  7.2 °C 38.8 °F /  3.8 °C 29.98 in /  1015.1 hPa WNW 13.0 mph /  20.9 km/h 22.0 mph /  35.4 km/h 79 % 0.00 in /  0 mm 142 W/m2
03:55 45.0 °F /  7.2 °C 38.5 °F /  3.6 °C 29.98 in /  1015.1 hPa WNW 13.0 mph /  20.9 km/h 22.0 mph /  35.4 km/h 78 % 0.00 in /  0 mm 153 W/m2
04:00 45.1 °F /  7.3 °C 38.7 °F /  3.7 °C 29.99 in /  1015.5 hPa WNW 14.0 mph /  22.5 km/h 25.0 mph /  40.2 km/h 78 % 0.00 in /  0 mm 160 W/m2
04:05 45.1 °F /  7.3 °C 38.7 °F /  3.7 °C 29.99 in /  1015.5 hPa WNW 14.0 mph /  22.5 km/h 25.0 mph /  40.2 km/h 78 % 0.00 in /  0 mm 163 W/m2
04:10 45.3 °F /  7.4 °C 38.9 °F /  3.8 °C 29.99 in /  1015.5 hPa WNW 13.0 mph /  20.9 km/h 24.0 mph /  38.6 km/h 78 % 0.00 in /  0 mm 163 W/m2
04:15 45.3 °F /  7.4 °C 38.5 °F /  3.6 °C 29.99 in /  1015.5 hPa WNW 14.0 mph /  22.5 km/h 24.0 mph /  38.6 km/h 77 % 0.00 in /  0 mm 172 W/m2
04:20 45.7 °F /  7.6 °C 39.2 °F /  4 °C 29.99 in /  1015.5 hPa WNW 14.0 mph /  22.5 km/h 23.0 mph /  37 km/h 78 % 0.00 in /  0 mm 178 W/m2
04:25 45.7 °F /  7.6 °C 39.2 °F /  4 °C 29.99 in /  1015.5 hPa WNW 13.0 mph /  20.9 km/h 22.0 mph /  35.4 km/h 78 % 0.00 in /  0 mm 186 W/m2
04:35 46.0 °F /  7.8 °C 39.6 °F /  4.2 °C 30.00 in /  1015.8 hPa WNW 10.0 mph /  16.1 km/h 19.0 mph /  30.6 km/h 78 % 0.00 in /  0 mm 183 W/m2
04:40 46.0 °F /  7.8 °C 38.9 °F /  3.8 °C 30.00 in /  1015.8 hPa WNW 10.0 mph /  16.1 km/h 19.0 mph /  30.6 km/h 76 % 0.00 in /  0 mm 197 W/m2
04:45 46.2 °F /  7.9 °C 39.1 °F /  3.9 °C 30.00 in /  1015.8 hPa WNW 11.0 mph /  17.7 km/h 23.0 mph /  37 km/h 76 % 0.00 in /  0 mm 227 W/m2
04:50 46.6 °F /  8.1 °C 39.1 °F /  3.9 °C 30.00 in /  1015.8 hPa WNW 11.0 mph /  17.7 km/h 23.0 mph /  37 km/h 75 % 0.00 in /  0 mm 246 W/m2
04:55 46.8 °F /  8.2 °C 38.9 °F /  3.8 °C 30.01 in /  1016.1 hPa WNW 12.0 mph /  19.3 km/h 23.0 mph /  37 km/h 74 % 0.00 in /  0 mm 262 W/m2
05:00 46.9 °F /  8.3 °C 39.1 °F /  3.9 °C 30.01 in /  1016.1 hPa WNW 13.0 mph /  20.9 km/h 23.0 mph /  37 km/h 74 % 0.00 in /  0 mm 244 W/m2
05:05 47.1 °F /  8.4 °C 38.9 °F /  3.8 °C 30.01 in /  1016.1 hPa WNW 12.0 mph /  19.3 km/h 20.0 mph /  32.2 km/h 73 % 0.00 in /  0 mm 225 W/m2
05:10 47.5 °F /  8.6 °C 39.6 °F /  4.2 °C 30.01 in /  1016.1 hPa WNW 12.0 mph /  19.3 km/h 20.0 mph /  32.2 km/h 74 % 0.00 in /  0 mm 234 W/m2
05:15 47.5 °F /  8.6 °C 39.3 °F /  4.1 °C 30.01 in /  1016.1 hPa WNW 11.0 mph /  17.7 km/h 21.0 mph /  33.8 km/h 73 % 0.00 in /  0 mm 239 W/m2
05:20 47.5 °F /  8.6 °C 38.9 °F /  3.8 °C 30.01 in /  1016.1 hPa WNW 12.0 mph /  19.3 km/h 22.0 mph /  35.4 km/h 72 % 0.00 in /  0 mm 244 W/m2
05:25 47.7 °F /  8.7 °C 39.1 °F /  3.9 °C 30.01 in /  1016.1 hPa West 12.0 mph /  19.3 km/h 22.0 mph /  35.4 km/h 72 % 0.00 in /  0 mm 237 W/m2
05:30 47.8 °F /  8.8 °C 38.9 °F /  3.8 °C 30.01 in /  1016.1 hPa WNW 11.0 mph /  17.7 km/h 18.0 mph /  29 km/h 71 % 0.00 in /  0 mm 253 W/m2
05:35 48.0 °F /  8.9 °C 39.1 °F /  3.9 °C 30.01 in /  1016.1 hPa WNW 11.0 mph /  17.7 km/h 18.0 mph /  29 km/h 71 % 0.00 in /  0 mm 276 W/m2
05:40 48.2 °F /  9 °C 39.2 °F /  4 °C 30.02 in /  1016.5 hPa WNW 11.0 mph /  17.7 km/h 20.0 mph /  32.2 km/h 71 % 0.00 in /  0 mm 241 W/m2
05:45 48.4 °F /  9.1 °C 39.4 °F /  4.1 °C 30.01 in /  1016.1 hPa WNW 11.0 mph /  17.7 km/h 20.0 mph /  32.2 km/h 71 % 0.00 in /  0 mm 420 W/m2
05:55 49.1 °F /  9.5 °C 39.4 °F /  4.1 °C 30.01 in /  1016.1 hPa WNW 12.0 mph /  19.3 km/h 22.0 mph /  35.4 km/h 69 % 0.00 in /  0 mm 425 W/m2
06:00 49.6 °F /  9.8 °C 39.1 °F /  3.9 °C 30.01 in /  1016.1 hPa WNW 12.0 mph /  19.3 km/h 22.0 mph /  35.4 km/h 67 % 0.00 in /  0 mm 461 W/m2
06:05 50.2 °F /  10.1 °C 39.3 °F /  4.1 °C 30.01 in /  1016.1 hPa WNW 12.0 mph /  19.3 km/h 20.0 mph /  32.2 km/h 66 % 0.00 in /  0 mm 336 W/m2
06:10 50.4 °F /  10.2 °C 39.0 °F /  3.9 °C 30.01 in /  1016.1 hPa WNW 14.0 mph /  22.5 km/h 24.0 mph /  38.6 km/h 65 % 0.00 in /  0 mm 417 W/m2
06:15 50.2 °F /  10.1 °C 38.9 °F /  3.8 °C 30.01 in /  1016.1 hPa West 16.0 mph /  25.7 km/h 25.0 mph /  40.2 km/h 65 % 0.00 in /  0 mm 360 W/m2
06:20 50.5 °F /  10.3 °C 39.2 °F /  4 °C 30.01 in /  1016.1 hPa WNW 14.0 mph /  22.5 km/h 25.0 mph /  40.2 km/h 65 % 0.00 in /  0 mm 369 W/m2
06:25 50.7 °F /  10.4 °C 39.0 °F /  3.9 °C 30.01 in /  1016.1 hPa WNW 12.0 mph /  19.3 km/h 23.0 mph /  37 km/h 64 % 0.00 in /  0 mm 353 W/m2
06:30 50.9 °F /  10.5 °C 39.5 °F /  4.2 °C 30.02 in /  1016.5 hPa WNW 12.0 mph /  19.3 km/h 23.0 mph /  37 km/h 65 % 0.00 in /  0 mm 552 W/m2
06:35 51.3 °F /  10.7 °C 39.1 °F /  3.9 °C 30.01 in /  1016.1 hPa WNW 14.0 mph /  22.5 km/h 25.0 mph /  40.2 km/h 63 % 0.00 in /  0 mm 858 W/m2
06:41 51.6 °F /  10.9 °C 39.4 °F /  4.1 °C 30.02 in /  1016.5 hPa WNW 16.0 mph /  25.7 km/h 26.0 mph /  41.8 km/h 63 % 0.00 in /  0 mm 278 W/m2
06:46 51.6 °F /  10.9 °C 39.0 °F /  3.9 °C 30.02 in /  1016.5 hPa WNW 15.0 mph /  24.1 km/h 26.0 mph /  41.8 km/h 62 % 0.00 in /  0 mm 352 W/m2
06:51 52.0 °F /  11.1 °C 38.9 °F /  3.8 °C 30.02 in /  1016.5 hPa WNW 14.0 mph /  22.5 km/h 23.0 mph /  37 km/h 61 % 0.00 in /  0 mm 844 W/m2
06:56 52.5 °F /  11.4 °C 39.0 °F /  3.9 °C 30.02 in /  1016.5 hPa West 14.0 mph /  22.5 km/h 23.0 mph /  37 km/h 60 % 0.00 in /  0 mm 645 W/m2
07:01 52.3 °F /  11.3 °C 38.9 °F /  3.8 °C 30.02 in /  1016.5 hPa West 15.0 mph /  24.1 km/h 25.0 mph /  40.2 km/h 60 % 0.00 in /  0 mm 185 W/m2
07:06 51.4 °F /  10.8 °C 38.0 °F /  3.3 °C 30.02 in /  1016.5 hPa West 16.0 mph /  25.7 km/h 26.0 mph /  41.8 km/h 60 % 0.00 in /  0 mm 318 W/m2
07:11 51.3 °F /  10.7 °C 37.8 °F /  3.2 °C 30.02 in /  1016.5 hPa West 16.0 mph /  25.7 km/h 26.0 mph /  41.8 km/h 60 % 0.00 in /  0 mm 339 W/m2
07:16 51.3 °F /  10.7 °C 37.4 °F /  3 °C 30.02 in /  1016.5 hPa WNW 14.0 mph /  22.5 km/h 25.0 mph /  40.2 km/h 59 % 0.00 in /  0 mm 329 W/m2
07:21 51.4 °F /  10.8 °C 37.6 °F /  3.1 °C 30.02 in /  1016.5 hPa WNW 13.0 mph /  20.9 km/h 24.0 mph /  38.6 km/h 59 % 0.00 in /  0 mm 216 W/m2
07:26 51.3 °F /  10.7 °C 37.8 °F /  3.2 °C 30.02 in /  1016.5 hPa WNW 14.0 mph /  22.5 km/h 23.0 mph /  37 km/h 60 % 0.00 in /  0 mm 248 W/m2
07:31 51.3 °F /  10.7 °C 37.8 °F /  3.2 °C 30.02 in /  1016.5 hPa WNW 13.0 mph /  20.9 km/h 23.0 mph /  37 km/h 60 % 0.00 in /  0 mm 359 W/m2
07:36 51.8 °F /  11 °C 39.2 °F /  4 °C 30.02 in /  1016.5 hPa WNW 12.0 mph /  19.3 km/h 21.0 mph /  33.8 km/h 62 % 0.00 in /  0 mm 1032 W/m2
07:41 52.9 °F /  11.6 °C 38.9 °F /  3.8 °C 30.02 in /  1016.5 hPa WNW 14.0 mph /  22.5 km/h 28.0 mph /  45.1 km/h 59 % 0.00 in /  0 mm 299 W/m2
07:46 53.2 °F /  11.8 °C 39.3 °F /  4.1 °C 30.02 in /  1016.5 hPa West 15.0 mph /  24.1 km/h 28.0 mph /  45.1 km/h 59 % 0.00 in /  0 mm 1002 W/m2
07:51 54.0 °F /  12.2 °C 39.5 °F /  4.2 °C 30.02 in /  1016.5 hPa West 14.0 mph /  22.5 km/h 25.0 mph /  40.2 km/h 58 % 0.00 in /  0 mm 1002 W/m2
07:56 54.0 °F /  12.2 °C 38.6 °F /  3.7 °C 30.02 in /  1016.5 hPa West 15.0 mph /  24.1 km/h 25.0 mph /  40.2 km/h 56 % 0.00 in /  0 mm 232 W/m2
08:01 53.1 °F /  11.7 °C 37.8 °F /  3.2 °C 30.02 in /  1016.5 hPa West 15.0 mph /  24.1 km/h 25.0 mph /  40.2 km/h 56 % 0.00 in /  0 mm 360 W/m2
08:06 53.2 °F /  11.8 °C 38.8 °F /  3.8 °C 30.02 in /  1016.5 hPa WNW 13.0 mph /  20.9 km/h 25.0 mph /  40.2 km/h 58 % 0.00 in /  0 mm 367 W/m2
08:11 53.8 °F /  12.1 °C 38.4 °F /  3.6 °C 30.02 in /  1016.5 hPa WNW 12.0 mph /  19.3 km/h 24.0 mph /  38.6 km/h 56 % 0.00 in /  0 mm 200 W/m2
08:16 53.4 °F /  11.9 °C 38.6 °F /  3.7 °C 30.02 in /  1016.5 hPa WNW 11.0 mph /  17.7 km/h 24.0 mph /  38.6 km/h 57 % 0.00 in /  0 mm 258 W/m2
08:21 54.0 °F /  12.2 °C 39.1 °F /  3.9 °C 30.02 in /  1016.5 hPa WNW 12.0 mph /  19.3 km/h 23.0 mph /  37 km/h 57 % 0.00 in /  0 mm 330 W/m2
08:26 53.4 °F /  11.9 °C 38.1 °F /  3.4 °C 30.02 in /  1016.5 hPa West 15.0 mph /  24.1 km/h 26.0 mph /  41.8 km/h 56 % 0.00 in /  0 mm 441 W/m2
08:31 52.9 °F /  11.6 °C 38.5 °F /  3.6 °C 30.03 in /  1016.8 hPa West 16.0 mph /  25.7 km/h 27.0 mph /  43.5 km/h 58 % 0.00 in /  0 mm 1007 W/m2
08:36 52.9 °F /  11.6 °C 38.9 °F /  3.8 °C 30.02 in /  1016.5 hPa West 15.0 mph /  24.1 km/h 27.0 mph /  43.5 km/h 59 % 0.00 in /  0 mm 241 W/m2
08:41 52.5 °F /  11.4 °C 38.6 °F /  3.7 °C 30.02 in /  1016.5 hPa WNW 14.0 mph /  22.5 km/h 23.0 mph /  37 km/h 59 % 0.00 in /  0 mm 209 W/m2
08:46 52.3 °F /  11.3 °C 39.3 °F /  4.1 °C 30.02 in /  1016.5 hPa WNW 12.0 mph /  19.3 km/h 22.0 mph /  35.4 km/h 61 % 0.00 in /  0 mm 313 W/m2
08:51 52.5 °F /  11.4 °C 38.6 °F /  3.7 °C 30.02 in /  1016.5 hPa WNW 11.0 mph /  17.7 km/h 19.0 mph /  30.6 km/h 59 % 0.00 in /  0 mm 265 W/m2
08:56 52.5 °F /  11.4 °C 39.5 °F /  4.2 °C 30.02 in /  1016.5 hPa WNW 14.0 mph /  22.5 km/h 27.0 mph /  43.5 km/h 61 % 0.00 in /  0 mm 925 W/m2
09:01 52.9 °F /  11.6 °C 39.8 °F /  4.3 °C 30.02 in /  1016.5 hPa WNW 16.0 mph /  25.7 km/h 27.0 mph /  43.5 km/h 61 % 0.00 in /  0 mm 819 W/m2
09:06 53.8 °F /  12.1 °C 40.2 °F /  4.6 °C 30.02 in /  1016.5 hPa WNW 16.0 mph /  25.7 km/h 24.0 mph /  38.6 km/h 60 % 0.00 in /  0 mm 826 W/m2
09:11 54.1 °F /  12.3 °C 38.8 °F /  3.8 °C 30.02 in /  1016.5 hPa WNW 16.0 mph /  25.7 km/h 29.0 mph /  46.7 km/h 56 % 0.00 in /  0 mm 981 W/m2
09:16 54.9 °F /  12.7 °C 39.5 °F /  4.2 °C 30.02 in /  1016.5 hPa West 16.0 mph /  25.7 km/h 30.0 mph /  48.3 km/h 56 % 0.00 in /  0 mm 765 W/m2
09:21 55.0 °F /  12.8 °C 38.2 °F /  3.4 °C 30.02 in /  1016.5 hPa WNW 16.0 mph /  25.7 km/h 30.0 mph /  48.3 km/h 53 % 0.00 in /  0 mm 904 W/m2
09:26 54.7 °F /  12.6 °C 38.4 °F /  3.6 °C 30.02 in /  1016.5 hPa WNW 16.0 mph /  25.7 km/h 28.0 mph /  45.1 km/h 54 % 0.00 in /  0 mm 482 W/m2
09:31 54.5 °F /  12.5 °C 39.1 °F /  3.9 °C 30.02 in /  1016.5 hPa WNW 15.0 mph /  24.1 km/h 28.0 mph /  45.1 km/h 56 % 0.00 in /  0 mm 914 W/m2
09:36 54.9 °F /  12.7 °C 39.0 °F /  3.9 °C 30.02 in /  1016.5 hPa WNW 15.0 mph /  24.1 km/h 29.0 mph /  46.7 km/h 55 % 0.00 in /  0 mm 773 W/m2
09:42 54.7 °F /  12.6 °C 38.4 °F /  3.6 °C 30.03 in /  1016.8 hPa West 18.0 mph /  29 km/h 29.0 mph /  46.7 km/h 54 % 0.00 in /  0 mm 176 W/m2
09:47 54.3 °F /  12.4 °C 38.9 °F /  3.8 °C 30.02 in /  1016.5 hPa WNW 18.0 mph /  29 km/h 29.0 mph /  46.7 km/h 56 % 0.00 in /  0 mm 833 W/m2
09:57 54.0 °F /  12.2 °C 39.1 °F /  3.9 °C 30.02 in /  1016.5 hPa WNW 18.0 mph /  29 km/h 29.0 mph /  46.7 km/h 57 % 0.00 in /  0 mm 749 W/m2
10:02 54.5 °F /  12.5 °C 39.6 °F /  4.2 °C 30.02 in /  1016.5 hPa WNW 17.0 mph /  27.4 km/h 29.0 mph /  46.7 km/h 57 % 0.00 in /  0 mm 773 W/m2
10:07 54.9 °F /  12.7 °C 39.9 °F /  4.4 °C 30.02 in /  1016.5 hPa WNW 16.0 mph /  25.7 km/h 26.0 mph /  41.8 km/h 57 % 0.00 in /  0 mm 598 W/m2
10:12 54.7 °F /  12.6 °C 39.7 °F /  4.3 °C 30.03 in /  1016.8 hPa WNW 18.0 mph /  29 km/h 32.0 mph /  51.5 km/h 57 % 0.00 in /  0 mm 598 W/m2
10:17 54.1 °F /  12.3 °C 39.2 °F /  4 °C 30.03 in /  1016.8 hPa WNW 19.0 mph /  30.6 km/h 32.0 mph /  51.5 km/h 57 % 0.00 in /  0 mm 598 W/m2
10:22 53.6 °F /  12 °C 40.0 °F /  4.4 °C 30.03 in /  1016.8 hPa WNW 18.0 mph /  29 km/h 29.0 mph /  46.7 km/h 60 % 0.00 in /  0 mm 705 W/m2
10:27 53.6 °F /  12 °C 39.6 °F /  4.2 °C 30.03 in /  1016.8 hPa West 19.0 mph /  30.6 km/h 35.0 mph /  56.3 km/h 59 % 0.00 in /  0 mm 336 W/m2
10:32 53.4 °F /  11.9 °C 39.9 °F /  4.4 °C 30.03 in /  1016.8 hPa West 19.0 mph /  30.6 km/h 35.0 mph /  56.3 km/h 60 % 0.00 in /  0 mm 677 W/m2
10:37 54.0 °F /  12.2 °C 41.2 °F /  5.1 °C 30.02 in /  1016.5 hPa WNW 16.0 mph /  25.7 km/h 29.0 mph /  46.7 km/h 62 % 0.00 in /  0 mm 680 W/m2
10:42 54.3 °F /  12.4 °C 39.8 °F /  4.3 °C 30.02 in /  1016.5 hPa WNW 15.0 mph /  24.1 km/h 27.0 mph /  43.5 km/h 58 % 0.00 in /  0 mm 745 W/m2
10:47 54.5 °F /  12.5 °C 39.6 °F /  4.2 °C 30.02 in /  1016.5 hPa West 19.0 mph /  30.6 km/h 28.0 mph /  45.1 km/h 57 % 0.00 in /  0 mm 798 W/m2
10:52 54.9 °F /  12.7 °C 39.9 °F /  4.4 °C 30.02 in /  1016.5 hPa West 20.0 mph /  32.2 km/h 29.0 mph /  46.7 km/h 57 % 0.00 in /  0 mm 687 W/m2
10:57 54.9 °F /  12.7 °C 39.9 °F /  4.4 °C 30.02 in /  1016.5 hPa WNW 18.0 mph /  29 km/h 29.0 mph /  46.7 km/h 57 % 0.00 in /  0 mm 645 W/m2
11:02 54.7 °F /  12.6 °C 39.7 °F /  4.3 °C 30.02 in /  1016.5 hPa WNW 19.0 mph /  30.6 km/h 29.0 mph /  46.7 km/h 57 % 0.00 in /  0 mm 633 W/m2
11:07 53.8 °F /  12.1 °C 38.4 °F /  3.6 °C 30.02 in /  1016.5 hPa WNW 20.0 mph /  32.2 km/h 29.0 mph /  46.7 km/h 56 % 0.00 in /  0 mm 156 W/m2
11:12 53.1 °F /  11.7 °C 39.1 °F /  3.9 °C 30.02 in /  1016.5 hPa WNW 19.0 mph /  30.6 km/h 28.0 mph /  45.1 km/h 59 % 0.00 in /  0 mm 387 W/m2
11:17 52.5 °F /  11.4 °C 39.5 °F /  4.2 °C 30.03 in /  1016.8 hPa WNW 17.0 mph /  27.4 km/h 28.0 mph /  45.1 km/h 61 % 0.00 in /  0 mm 283 W/m2
11:22 52.3 °F /  11.3 °C 39.7 °F /  4.3 °C 30.03 in /  1016.8 hPa WNW 17.0 mph /  27.4 km/h 27.0 mph /  43.5 km/h 62 % 0.00 in /  0 mm 102 W/m2
11:27 52.2 °F /  11.2 °C 39.5 °F /  4.2 °C 30.03 in /  1016.8 hPa WNW 16.0 mph /  25.7 km/h 26.0 mph /  41.8 km/h 62 % 0.00 in /  0 mm 104 W/m2
11:32 51.4 °F /  10.8 °C 39.7 °F /  4.3 °C 30.04 in /  1017.2 hPa WNW 17.0 mph /  27.4 km/h 28.0 mph /  45.1 km/h 64 % 0.00 in /  0 mm 98 W/m2
11:37 50.7 °F /  10.4 °C 40.9 °F /  4.9 °C 30.04 in /  1017.2 hPa WNW 18.0 mph /  29 km/h 28.0 mph /  45.1 km/h 69 % 0.00 in /  0 mm 88 W/m2
11:42 50.0 °F /  10 °C 42.7 °F /  5.9 °C 30.04 in /  1017.2 hPa WNW 15.0 mph /  24.1 km/h 28.0 mph /  45.1 km/h 76 % 0.00 in /  0 mm 517 W/m2
11:48 49.6 °F /  9.8 °C 43.1 °F /  6.2 °C 30.04 in /  1017.2 hPa WNW 14.0 mph /  22.5 km/h 22.0 mph /  35.4 km/h 78 % 0.00 in /  0 mm 462 W/m2
11:53 49.6 °F /  9.8 °C 43.4 °F /  6.3 °C 30.03 in /  1016.8 hPa WNW 12.0 mph /  19.3 km/h 21.0 mph /  33.8 km/h 79 % 0.00 in /  0 mm 135 W/m2
11:58 49.6 °F /  9.8 °C 43.1 °F /  6.2 °C 30.03 in /  1016.8 hPa WNW 11.0 mph /  17.7 km/h 21.0 mph /  33.8 km/h 78 % 0.00 in /  0 mm 148 W/m2
12:03 50.2 °F /  10.1 °C 42.9 °F /  6.1 °C 30.03 in /  1016.8 hPa WNW 12.0 mph /  19.3 km/h 21.0 mph /  33.8 km/h 76 % 0.00 in /  0 mm 548 W/m2
12:08 51.1 °F /  10.6 °C 42.0 °F /  5.6 °C 30.03 in /  1016.8 hPa WNW 15.0 mph /  24.1 km/h 30.0 mph /  48.3 km/h 71 % 0.01 in /  0.25 mm 432 W/m2
12:13 51.4 °F /  10.8 °C 40.5 °F /  4.7 °C 30.03 in /  1016.8 hPa WNW 18.0 mph /  29 km/h 32.0 mph /  51.5 km/h 66 % 0.01 in /  0.25 mm 376 W/m2
12:18 51.6 °F /  10.9 °C 39.8 °F /  4.3 °C 30.03 in /  1016.8 hPa WNW 19.0 mph /  30.6 km/h 32.0 mph /  51.5 km/h 64 % 0.01 in /  0.25 mm 373 W/m2
12:23 51.8 °F /  11 °C 40.0 °F /  4.4 °C 30.03 in /  1016.8 hPa WNW 16.0 mph /  25.7 km/h 29.0 mph /  46.7 km/h 64 % 0.01 in /  0.25 mm 378 W/m2
12:28 51.6 °F /  10.9 °C 39.8 °F /  4.3 °C 30.03 in /  1016.8 hPa West 14.0 mph /  22.5 km/h 24.0 mph /  38.6 km/h 64 % 0.01 in /  0.25 mm 113 W/m2
12:33 51.3 °F /  10.7 °C 39.9 °F /  4.4 °C 30.03 in /  1016.8 hPa WNW 14.0 mph /  22.5 km/h 24.0 mph /  38.6 km/h 65 % 0.01 in /  0.25 mm 114 W/m2
12:38 50.9 °F /  10.5 °C 39.9 °F /  4.4 °C 30.04 in /  1017.2 hPa WNW 11.0 mph /  17.7 km/h 24.0 mph /  38.6 km/h 66 % 0.01 in /  0.25 mm 84 W/m2
12:43 50.5 °F /  10.3 °C 40.7 °F /  4.8 °C 30.05 in /  1017.5 hPa WNW 10.0 mph /  16.1 km/h 24.0 mph /  38.6 km/h 69 % 0.01 in /  0.25 mm 32 W/m2
12:48 49.3 °F /  9.6 °C 42.4 °F /  5.8 °C 30.05 in /  1017.5 hPa WNW 13.0 mph /  20.9 km/h 24.0 mph /  38.6 km/h 77 % 0.02 in /  0.51 mm 60 W/m2
12:54 47.7 °F /  8.7 °C 41.8 °F /  5.4 °C 30.05 in /  1017.5 hPa WNW 16.0 mph /  25.7 km/h 25.0 mph /  40.2 km/h 80 % 0.02 in /  0.51 mm 93 W/m2
12:59 46.6 °F /  8.1 °C 41.7 °F /  5.4 °C 30.05 in /  1017.5 hPa WNW 16.0 mph /  25.7 km/h 25.0 mph /  40.2 km/h 83 % 0.02 in /  0.51 mm 199 W/m2
13:04 46.2 °F /  7.9 °C 42.0 °F /  5.6 °C 30.05 in /  1017.5 hPa WNW 15.0 mph /  24.1 km/h 25.0 mph /  40.2 km/h 85 % 0.02 in /  0.51 mm 63 W/m2
13:09 45.9 °F /  7.7 °C 41.9 °F /  5.5 °C 30.05 in /  1017.5 hPa WNW 13.0 mph /  20.9 km/h 23.0 mph /  37 km/h 86 % 0.01 in /  0.25 mm 186 W/m2
13:14 46.0 °F /  7.8 °C 42.4 °F /  5.8 °C 30.05 in /  1017.5 hPa WNW 12.0 mph /  19.3 km/h 21.0 mph /  33.8 km/h 87 % 0.01 in /  0.25 mm 223 W/m2
13:19 46.2 °F /  7.9 °C 42.3 °F /  5.7 °C 30.04 in /  1017.2 hPa WNW 12.0 mph /  19.3 km/h 19.0 mph /  30.6 km/h 86 % 0.01 in /  0.25 mm 199 W/m2
13:24 46.6 °F /  8.1 °C 42.3 °F /  5.7 °C 30.04 in /  1017.2 hPa WNW 12.0 mph /  19.3 km/h 21.0 mph /  33.8 km/h 85 % 0.01 in /  0.25 mm 127 W/m2
13:29 46.6 °F /  8.1 °C 41.7 °F /  5.4 °C 30.04 in /  1017.2 hPa WNW 14.0 mph /  22.5 km/h 25.0 mph /  40.2 km/h 83 % 0.01 in /  0.25 mm 144 W/m2
13:34 46.8 °F /  8.2 °C 41.6 °F /  5.3 °C 30.04 in /  1017.2 hPa WNW 15.0 mph /  24.1 km/h 25.0 mph /  40.2 km/h 82 % 0.01 in /  0.25 mm 165 W/m2
13:39 46.9 °F /  8.3 °C 41.4 °F /  5.2 °C 30.05 in /  1017.5 hPa WNW 13.0 mph /  20.9 km/h 23.0 mph /  37 km/h 81 % 0.01 in /  0.25 mm 153 W/m2
13:44 47.3 °F /  8.5 °C 41.8 °F /  5.4 °C 30.05 in /  1017.5 hPa WNW 11.0 mph /  17.7 km/h 20.0 mph /  32.2 km/h 81 % 0.01 in /  0.25 mm 153 W/m2
13:49 47.5 °F /  8.6 °C 41.6 °F /  5.3 °C 30.06 in /  1017.8 hPa WNW 10.0 mph /  16.1 km/h 20.0 mph /  32.2 km/h 80 % 0.00 in /  0 mm 120 W/m2
13:59 47.5 °F /  8.6 °C 40.3 °F /  4.6 °C 30.06 in /  1017.8 hPa WNW 11.0 mph /  17.7 km/h 21.0 mph /  33.8 km/h 76 % 0.00 in /  0 mm 95 W/m2
14:04 47.5 °F /  8.6 °C 40.3 °F /  4.6 °C 30.06 in /  1017.8 hPa WNW 10.0 mph /  16.1 km/h 19.0 mph /  30.6 km/h 76 % 0.00 in /  0 mm 84 W/m2
14:09 47.5 °F /  8.6 °C 39.9 °F /  4.4 °C 30.06 in /  1017.8 hPa WNW 11.0 mph /  17.7 km/h 21.0 mph /  33.8 km/h 75 % 0.00 in /  0 mm 67 W/m2
14:14 47.3 °F /  8.5 °C 39.4 °F /  4.1 °C 30.06 in /  1017.8 hPa WNW 11.0 mph /  17.7 km/h 21.0 mph /  33.8 km/h 74 % 0.00 in /  0 mm 47 W/m2
14:19 46.9 °F /  8.3 °C 39.1 °F /  3.9 °C 30.06 in /  1017.8 hPa WNW 12.0 mph /  19.3 km/h 20.0 mph /  32.2 km/h 74 % 0.00 in /  0 mm 44 W/m2
14:24 46.8 °F /  8.2 °C 38.6 °F /  3.7 °C 30.07 in /  1018.2 hPa WNW 13.0 mph /  20.9 km/h 21.0 mph /  33.8 km/h 73 % 0.00 in /  0 mm 33 W/m2
14:29 46.6 °F /  8.1 °C 38.4 °F /  3.6 °C 30.07 in /  1018.2 hPa WNW 13.0 mph /  20.9 km/h 21.0 mph /  33.8 km/h 73 % 0.00 in /  0 mm 25 W/m2
14:34 46.6 °F /  8.1 °C 38.4 °F /  3.6 °C 30.07 in /  1018.2 hPa WNW 11.0 mph /  17.7 km/h 21.0 mph /  33.8 km/h 73 % 0.00 in /  0 mm 21 W/m2
14:39 46.2 °F /  7.9 °C 38.0 °F /  3.3 °C 30.07 in /  1018.2 hPa WNW 11.0 mph /  17.7 km/h 18.0 mph /  29 km/h 73 % 0.00 in /  0 mm 19 W/m2
14:44 46.0 °F /  7.8 °C 38.2 °F /  3.4 °C 30.07 in /  1018.2 hPa WNW 11.0 mph /  17.7 km/h 19.0 mph /  30.6 km/h 74 % 0.00 in /  0 mm 16 W/m2
14:49 45.9 °F /  7.7 °C 38.0 °F /  3.3 °C 30.07 in /  1018.2 hPa WNW 11.0 mph /  17.7 km/h 19.0 mph /  30.6 km/h 74 % 0.00 in /  0 mm 12 W/m2
14:54 45.7 °F /  7.6 °C 37.9 °F /  3.3 °C 30.07 in /  1018.2 hPa WNW 11.0 mph /  17.7 km/h 21.0 mph /  33.8 km/h 74 % 0.00 in /  0 mm 9 W/m2
14:59 45.3 °F /  7.4 °C 37.5 °F /  3.1 °C 30.07 in /  1018.2 hPa WNW 11.0 mph /  17.7 km/h 21.0 mph /  33.8 km/h 74 % 0.00 in /  0 mm 7 W/m2
15:04 45.3 °F /  7.4 °C 37.5 °F /  3.1 °C 30.07 in /  1018.2 hPa WNW 12.0 mph /  19.3 km/h 20.0 mph /  32.2 km/h 74 % 0.00 in /  0 mm 0 W/m2
15:09 45.1 °F /  7.3 °C 37.3 °F /  2.9 °C 30.07 in /  1018.2 hPa WNW 12.0 mph /  19.3 km/h 22.0 mph /  35.4 km/h 74 % 0.00 in /  0 mm 0 W/m2
15:14 45.1 °F /  7.3 °C 37.3 °F /  2.9 °C 30.07 in /  1018.2 hPa WNW 12.0 mph /  19.3 km/h 23.0 mph /  37 km/h 74 % 0.00 in /  0 mm 0 W/m2
15:19 45.0 °F /  7.2 °C 37.2 °F /  2.9 °C 30.07 in /  1018.2 hPa WNW 13.0 mph /  20.9 km/h 23.0 mph /  37 km/h 74 % 0.00 in /  0 mm 0 W/m2
15:24 45.0 °F /  7.2 °C 37.2 °F /  2.9 °C 30.07 in /  1018.2 hPa WNW 12.0 mph /  19.3 km/h 21.0 mph /  33.8 km/h 74 % 0.00 in /  0 mm 0 W/m2
15:29 44.8 °F /  7.1 °C 37.3 °F /  2.9 °C 30.07 in /  1018.2 hPa WNW 10.0 mph /  16.1 km/h 19.0 mph /  30.6 km/h 75 % 0.00 in /  0 mm 0 W/m2
15:34 44.6 °F /  7 °C 37.2 °F /  2.9 °C 30.08 in /  1018.5 hPa WNW 10.0 mph /  16.1 km/h 15.0 mph /  24.1 km/h 75 % 0.00 in /  0 mm 0 W/m2
15:39 44.4 °F /  6.9 °C 37.0 °F /  2.8 °C 30.08 in /  1018.5 hPa WNW 9.0 mph /  14.5 km/h 15.0 mph /  24.1 km/h 75 % 0.00 in /  0 mm 0 W/m2
15:44 44.4 °F /  6.9 °C 37.0 °F /  2.8 °C 30.08 in /  1018.5 hPa WNW 8.0 mph /  12.9 km/h 15.0 mph /  24.1 km/h 75 % 0.00 in /  0 mm 0 W/m2
15:49 44.2 °F /  6.8 °C 37.2 °F /  2.9 °C 30.09 in /  1018.8 hPa WNW 7.0 mph /  11.3 km/h 15.0 mph /  24.1 km/h 76 % 0.00 in /  0 mm 0 W/m2
15:54 44.2 °F /  6.8 °C 37.2 °F /  2.9 °C 30.09 in /  1018.8 hPa WNW 6.0 mph /  9.7 km/h 14.0 mph /  22.5 km/h 76 % 0.00 in /  0 mm 0 W/m2
16:00 44.1 °F /  6.7 °C 37.0 °F /  2.8 °C 30.09 in /  1018.8 hPa NW 6.0 mph /  9.7 km/h 11.0 mph /  17.7 km/h 76 % 0.00 in /  0 mm 0 W/m2
16:05 44.1 °F /  6.7 °C 37.3 °F /  2.9 °C 30.09 in /  1018.8 hPa WNW 5.0 mph /  8 km/h 13.0 mph /  20.9 km/h 77 % 0.00 in /  0 mm 0 W/m2
16:10 44.1 °F /  6.7 °C 37.3 °F /  2.9 °C 30.09 in /  1018.8 hPa WNW 6.0 mph /  9.7 km/h 13.0 mph /  20.9 km/h 77 % 0.00 in /  0 mm 0 W/m2
16:15 43.9 °F /  6.6 °C 37.1 °F /  2.8 °C 30.10 in /  1019.2 hPa WNW 5.0 mph /  8 km/h 12.0 mph /  19.3 km/h 77 % 0.00 in /  0 mm 0 W/m2
16:20 43.9 °F /  6.6 °C 37.1 °F /  2.8 °C 30.10 in /  1019.2 hPa NW 5.0 mph /  8 km/h 15.0 mph /  24.1 km/h 77 % 0.00 in /  0 mm 0 W/m2
16:25 43.9 °F /  6.6 °C 37.1 °F /  2.8 °C 30.10 in /  1019.2 hPa NW 5.0 mph /  8 km/h 13.0 mph /  20.9 km/h 77 % 0.00 in /  0 mm 0 W/m2
16:31 43.9 °F /  6.6 °C 37.1 °F /  2.8 °C 30.10 in /  1019.2 hPa NW 6.0 mph /  9.7 km/h 13.0 mph /  20.9 km/h 77 % 0.00 in /  0 mm 0 W/m2
16:36 43.9 °F /  6.6 °C 36.8 °F /  2.7 °C 30.10 in /  1019.2 hPa NW 7.0 mph /  11.3 km/h 15.0 mph /  24.1 km/h 76 % 0.00 in /  0 mm 0 W/m2
16:41 43.9 °F /  6.6 °C 36.8 °F /  2.7 °C 30.10 in /  1019.2 hPa NW 7.0 mph /  11.3 km/h 15.0 mph /  24.1 km/h 76 % 0.00 in /  0 mm 0 W/m2
16:46 43.9 °F /  6.6 °C 36.8 °F /  2.7 °C 30.10 in /  1019.2 hPa NW 7.0 mph /  11.3 km/h 14.0 mph /  22.5 km/h 76 % 0.00 in /  0 mm 0 W/m2
16:51 43.9 °F /  6.6 °C 36.8 °F /  2.7 °C 30.10 in /  1019.2 hPa NW 7.0 mph /  11.3 km/h 13.0 mph /  20.9 km/h 76 % 0.00 in /  0 mm 0 W/m2
16:56 43.9 °F /  6.6 °C 36.8 °F /  2.7 °C 30.10 in /  1019.2 hPa NW 7.0 mph /  11.3 km/h 14.0 mph /  22.5 km/h 76 % 0.00 in /  0 mm 0 W/m2
17:01 43.7 °F /  6.5 °C 36.6 °F /  2.6 °C 30.10 in /  1019.2 hPa NW 7.0 mph /  11.3 km/h 14.0 mph /  22.5 km/h 76 % 0.00 in /  0 mm 0 W/m2
17:06 43.7 °F /  6.5 °C 37.0 °F /  2.8 °C 30.10 in /  1019.2 hPa NW 7.0 mph /  11.3 km/h 15.0 mph /  24.1 km/h 77 % 0.00 in /  0 mm 0 W/m2
17:11 43.5 °F /  6.4 °C 36.8 °F /  2.7 °C 30.10 in /  1019.2 hPa WNW 6.0 mph /  9.7 km/h 15.0 mph /  24.1 km/h 77 % 0.00 in /  0 mm 0 W/m2
17:16 43.5 °F /  6.4 °C 36.5 °F /  2.5 °C 30.10 in /  1019.2 hPa WNW 7.0 mph /  11.3 km/h 13.0 mph /  20.9 km/h 76 % 0.00 in /  0 mm 0 W/m2
17:21 43.5 °F /  6.4 °C 36.8 °F /  2.7 °C 30.11 in /  1019.5 hPa WNW 7.0 mph /  11.3 km/h 13.0 mph /  20.9 km/h 77 % 0.00 in /  0 mm 0 W/m2
17:26 43.5 °F /  6.4 °C 36.5 °F /  2.5 °C 30.11 in /  1019.5 hPa WNW 7.0 mph /  11.3 km/h 15.0 mph /  24.1 km/h 76 % 0.00 in /  0 mm 0 W/m2
17:31 43.3 °F /  6.3 °C 36.3 °F /  2.4 °C 30.11 in /  1019.5 hPa WNW 7.0 mph /  11.3 km/h 15.0 mph /  24.1 km/h 76 % 0.00 in /  0 mm 0 W/m2
17:36 43.3 °F /  6.3 °C 36.3 °F /  2.4 °C 30.10 in /  1019.2 hPa WNW 7.0 mph /  11.3 km/h 14.0 mph /  22.5 km/h 76 % 0.00 in /  0 mm 0 W/m2
17:41 43.2 °F /  6.2 °C 36.1 °F /  2.3 °C 30.11 in /  1019.5 hPa WNW 7.0 mph /  11.3 km/h 14.0 mph /  22.5 km/h 76 % 0.00 in /  0 mm 0 W/m2
17:46 43.2 °F /  6.2 °C 36.1 °F /  2.3 °C 30.10 in /  1019.2 hPa WNW 8.0 mph /  12.9 km/h 19.0 mph /  30.6 km/h 76 % 0.00 in /  0 mm 0 W/m2
17:51 43.2 °F /  6.2 °C 36.1 °F /  2.3 °C 30.11 in /  1019.5 hPa WNW 8.0 mph /  12.9 km/h 19.0 mph /  30.6 km/h 76 % 0.00 in /  0 mm 0 W/m2
17:56 43.2 °F /  6.2 °C 36.1 °F /  2.3 °C 30.11 in /  1019.5 hPa WNW 7.0 mph /  11.3 km/h 14.0 mph /  22.5 km/h 76 % 0.00 in /  0 mm 0 W/m2
18:01 43.0 °F /  6.1 °C 35.9 °F /  2.2 °C 30.11 in /  1019.5 hPa WNW 5.0 mph /  8 km/h 11.0 mph /  17.7 km/h 76 % 0.00 in /  0 mm 0 W/m2
18:06 43.0 °F /  6.1 °C 36.3 °F /  2.4 °C 30.11 in /  1019.5 hPa WNW 4.0 mph /  6.4 km/h 8.0 mph /  12.9 km/h 77 % 0.00 in /  0 mm 0 W/m2
18:11 42.8 °F /  6 °C 36.1 °F /  2.3 °C 30.11 in /  1019.5 hPa WNW 2.0 mph /  3.2 km/h 7.0 mph /  11.3 km/h 77 % 0.00 in /  0 mm 0 W/m2
18:16 42.6 °F /  5.9 °C 35.9 °F /  2.2 °C 30.11 in /  1019.5 hPa WNW 2.0 mph /  3.2 km/h 7.0 mph /  11.3 km/h 77 % 0.00 in /  0 mm 0 W/m2
18:21 42.4 °F /  5.8 °C 35.7 °F /  2.1 °C 30.11 in /  1019.5 hPa WNW 3.0 mph /  4.8 km/h 7.0 mph /  11.3 km/h 77 % 0.00 in /  0 mm 0 W/m2
18:26 42.3 °F /  5.7 °C 35.6 °F /  2 °C 30.11 in /  1019.5 hPa WNW 3.0 mph /  4.8 km/h 9.0 mph /  14.5 km/h 77 % 0.00 in /  0 mm 0 W/m2
18:31 42.1 °F /  5.6 °C 35.4 °F /  1.9 °C 30.11 in /  1019.5 hPa WNW 3.0 mph /  4.8 km/h 9.0 mph /  14.5 km/h 77 % 0.00 in /  0 mm 0 W/m2
18:36 42.1 °F /  5.6 °C 35.4 °F /  1.9 °C 30.12 in /  1019.9 hPa West 3.0 mph /  4.8 km/h 7.0 mph /  11.3 km/h 77 % 0.00 in /  0 mm 0 W/m2
18:41 42.1 °F /  5.6 °C 35.1 °F /  1.7 °C 30.12 in /  1019.9 hPa West 3.0 mph /  4.8 km/h 7.0 mph /  11.3 km/h 76 % 0.00 in /  0 mm 0 W/m2
18:47 42.1 °F /  5.6 °C 35.1 °F /  1.7 °C 30.12 in /  1019.9 hPa West 3.0 mph /  4.8 km/h 7.0 mph /  11.3 km/h 76 % 0.00 in /  0 mm 0 W/m2
18:52 41.9 °F /  5.5 °C 35.2 °F /  1.8 °C 30.12 in /  1019.9 hPa West 3.0 mph /  4.8 km/h 7.0 mph /  11.3 km/h 77 % 0.00 in /  0 mm 0 W/m2
18:57 41.7 °F /  5.4 °C 35.0 °F /  1.7 °C 30.12 in /  1019.9 hPa West 3.0 mph /  4.8 km/h 7.0 mph /  11.3 km/h 77 % 0.00 in /  0 mm 0 W/m2
19:02 41.5 °F /  5.3 °C 34.9 °F /  1.6 °C 30.12 in /  1019.9 hPa WNW 3.0 mph /  4.8 km/h 8.0 mph /  12.9 km/h 77 % 0.00 in /  0 mm 0 W/m2
19:07 41.4 °F /  5.2 °C 35.0 °F /  1.7 °C 30.12 in /  1019.9 hPa WNW 4.0 mph /  6.4 km/h 8.0 mph /  12.9 km/h 78 % 0.00 in /  0 mm 0 W/m2
19:12 41.4 °F /  5.2 °C 35.0 °F /  1.7 °C 30.12 in /  1019.9 hPa WNW 4.0 mph /  6.4 km/h 8.0 mph /  12.9 km/h 78 % 0.00 in /  0 mm 0 W/m2
19:17 41.4 °F /  5.2 °C 35.0 °F /  1.7 °C 30.12 in /  1019.9 hPa WNW 3.0 mph /  4.8 km/h 8.0 mph /  12.9 km/h 78 % 0.00 in /  0 mm 0 W/m2
19:22 41.2 °F /  5.1 °C 34.8 °F /  1.6 °C 30.12 in /  1019.9 hPa WNW 3.0 mph /  4.8 km/h 8.0 mph /  12.9 km/h 78 % 0.00 in /  0 mm 0 W/m2
19:27 41.2 °F /  5.1 °C 34.8 °F /  1.6 °C 30.12 in /  1019.9 hPa WNW 4.0 mph /  6.4 km/h 8.0 mph /  12.9 km/h 78 % 0.00 in /  0 mm 0 W/m2
19:32 41.4 °F /  5.2 °C 35.0 °F /  1.7 °C 30.12 in /  1019.9 hPa WNW 4.0 mph /  6.4 km/h 10.0 mph /  16.1 km/h 78 % 0.00 in /  0 mm 0 W/m2
19:37 41.4 °F /  5.2 °C 35.0 °F /  1.7 °C 30.12 in /  1019.9 hPa WNW 3.0 mph /  4.8 km/h 10.0 mph /  16.1 km/h 78 % 0.00 in /  0 mm 0 W/m2
19:42 41.4 °F /  5.2 °C 35.0 °F /  1.7 °C 30.12 in /  1019.9 hPa WNW 1.0 mph /  1.6 km/h 5.0 mph /  8 km/h 78 % 0.00 in /  0 mm 0 W/m2
19:47 41.2 °F /  5.1 °C 34.8 °F /  1.6 °C 30.12 in /  1019.9 hPa Calm   1.0 mph /  1.6 km/h 78 % 0.00 in /  0 mm 0 W/m2
19:52 40.8 °F /  4.9 °C 34.5 °F /  1.4 °C 30.12 in /  1019.9 hPa Calm   2.0 mph /  3.2 km/h 78 % 0.00 in /  0 mm 0 W/m2
19:57 40.6 °F /  4.8 °C 34.6 °F /  1.4 °C 30.12 in /  1019.9 hPa West 1.0 mph /  1.6 km/h 6.0 mph /  9.7 km/h 79 % 0.00 in /  0 mm 0 W/m2
20:02 40.5 °F /  4.7 °C 34.8 °F /  1.6 °C 30.13 in /  1020.2 hPa West 2.0 mph /  3.2 km/h 7.0 mph /  11.3 km/h 80 % 0.00 in /  0 mm 0 W/m2
20:07 40.6 °F /  4.8 °C 35.0 °F /  1.7 °C 30.13 in /  1020.2 hPa West 2.0 mph /  3.2 km/h 8.0 mph /  12.9 km/h 80 % 0.00 in /  0 mm 0 W/m2
20:12 40.6 °F /  4.8 °C 35.0 °F /  1.7 °C 30.13 in /  1020.2 hPa West 2.0 mph /  3.2 km/h 8.0 mph /  12.9 km/h 80 % 0.00 in /  0 mm 0 W/m2
20:17 40.6 °F /  4.8 °C 35.0 °F /  1.7 °C 30.13 in /  1020.2 hPa West 1.0 mph /  1.6 km/h 8.0 mph /  12.9 km/h 80 % 0.00 in /  0 mm 0 W/m2
20:27 40.6 °F /  4.8 °C 35.3 °F /  1.8 °C 30.13 in /  1020.2 hPa WNW 3.0 mph /  4.8 km/h 9.0 mph /  14.5 km/h 81 % 0.00 in /  0 mm 0 W/m2
20:32 40.8 °F /  4.9 °C 35.4 °F /  1.9 °C 30.13 in /  1020.2 hPa WNW 5.0 mph /  8 km/h 11.0 mph /  17.7 km/h 81 % 0.00 in /  0 mm 0 W/m2
20:37 41.2 °F /  5.1 °C 35.5 °F /  1.9 °C 30.13 in /  1020.2 hPa WNW 5.0 mph /  8 km/h 11.0 mph /  17.7 km/h 80 % 0.00 in /  0 mm 0 W/m2
20:42 41.4 °F /  5.2 °C 35.7 °F /  2.1 °C 30.13 in /  1020.2 hPa WNW 4.0 mph /  6.4 km/h 11.0 mph /  17.7 km/h 80 % 0.00 in /  0 mm 0 W/m2
20:47 41.5 °F /  5.3 °C 35.5 °F /  1.9 °C 30.13 in /  1020.2 hPa WNW 5.0 mph /  8 km/h 11.0 mph /  17.7 km/h 79 % 0.00 in /  0 mm 0 W/m2
20:52 41.7 °F /  5.4 °C 35.7 °F /  2.1 °C 30.13 in /  1020.2 hPa WNW 5.0 mph /  8 km/h 11.0 mph /  17.7 km/h 79 % 0.00 in /  0 mm 0 W/m2
20:57 41.7 °F /  5.4 °C 35.7 °F /  2.1 °C 30.13 in /  1020.2 hPa WNW 5.0 mph /  8 km/h 11.0 mph /  17.7 km/h 79 % 0.00 in /  0 mm 0 W/m2
21:02 41.7 °F /  5.4 °C 35.7 °F /  2.1 °C 30.14 in /  1020.5 hPa WNW 4.0 mph /  6.4 km/h 9.0 mph /  14.5 km/h 79 % 0.00 in /  0 mm 0 W/m2
21:07 41.7 °F /  5.4 °C 35.4 °F /  1.9 °C 30.14 in /  1020.5 hPa WNW 3.0 mph /  4.8 km/h 7.0 mph /  11.3 km/h 78 % 0.00 in /  0 mm 0 W/m2
21:12 41.7 °F /  5.4 °C 35.4 °F /  1.9 °C 30.13 in /  1020.2 hPa WNW 3.0 mph /  4.8 km/h 8.0 mph /  12.9 km/h 78 % 0.00 in /  0 mm 0 W/m2
21:17 41.7 °F /  5.4 °C 35.4 °F /  1.9 °C 30.14 in /  1020.5 hPa WNW 4.0 mph /  6.4 km/h 8.0 mph /  12.9 km/h 78 % 0.00 in /  0 mm 0 W/m2
21:22 41.7 °F /  5.4 °C 35.4 °F /  1.9 °C 30.13 in /  1020.2 hPa WNW 4.0 mph /  6.4 km/h 10.0 mph /  16.1 km/h 78 % 0.00 in /  0 mm 0 W/m2
21:27 41.7 °F /  5.4 °C 35.4 °F /  1.9 °C 30.13 in /  1020.2 hPa WNW 5.0 mph /  8 km/h 10.0 mph /  16.1 km/h 78 % 0.00 in /  0 mm 0 W/m2
21:32 41.7 °F /  5.4 °C 35.7 °F /  2.1 °C 30.13 in /  1020.2 hPa WNW 6.0 mph /  9.7 km/h 10.0 mph /  16.1 km/h 79 % 0.00 in /  0 mm 0 W/m2
21:38 41.7 °F /  5.4 °C 35.4 °F /  1.9 °C 30.13 in /  1020.2 hPa WNW 5.0 mph /  8 km/h 10.0 mph /  16.1 km/h 78 % 0.00 in /  0 mm 0 W/m2
21:43 41.9 °F /  5.5 °C 35.5 °F /  1.9 °C 30.13 in /  1020.2 hPa WNW 5.0 mph /  8 km/h 13.0 mph /  20.9 km/h 78 % 0.00 in /  0 mm 0 W/m2
21:48 42.1 °F /  5.6 °C 35.7 °F /  2.1 °C 30.13 in /  1020.2 hPa WNW 8.0 mph /  12.9 km/h 14.0 mph /  22.5 km/h 78 % 0.00 in /  0 mm 0 W/m2
21:53 42.3 °F /  5.7 °C 35.9 °F /  2.2 °C 30.13 in /  1020.2 hPa WNW 8.0 mph /  12.9 km/h 16.0 mph /  25.7 km/h 78 % 0.00 in /  0 mm 0 W/m2
21:58 42.3 °F /  5.7 °C 35.9 °F /  2.2 °C 30.14 in /  1020.5 hPa WNW 8.0 mph /  12.9 km/h 16.0 mph /  25.7 km/h 78 % 0.00 in /  0 mm 0 W/m2
22:03 42.4 °F /  5.8 °C 35.7 °F /  2.1 °C 30.14 in /  1020.5 hPa WNW 8.0 mph /  12.9 km/h 15.0 mph /  24.1 km/h 77 % 0.00 in /  0 mm 0 W/m2
22:08 42.4 °F /  5.8 °C 35.7 °F /  2.1 °C 30.13 in /  1020.2 hPa WNW 7.0 mph /  11.3 km/h 14.0 mph /  22.5 km/h 77 % 0.00 in /  0 mm 0 W/m2
22:13 42.4 °F /  5.8 °C 35.7 °F /  2.1 °C 30.13 in /  1020.2 hPa WNW 6.0 mph /  9.7 km/h 10.0 mph /  16.1 km/h 77 % 0.00 in /  0 mm 0 W/m2
22:18 42.4 °F /  5.8 °C 35.7 °F /  2.1 °C 30.13 in /  1020.2 hPa WNW 5.0 mph /  8 km/h 11.0 mph /  17.7 km/h 77 % 0.00 in /  0 mm 0 W/m2
22:23 42.4 °F /  5.8 °C 35.7 °F /  2.1 °C 30.13 in /  1020.2 hPa NW 5.0 mph /  8 km/h 13.0 mph /  20.9 km/h 77 % 0.00 in /  0 mm 0 W/m2
22:28 42.4 °F /  5.8 °C 35.7 °F /  2.1 °C 30.13 in /  1020.2 hPa WNW 6.0 mph /  9.7 km/h 13.0 mph /  20.9 km/h 77 % 0.00 in /  0 mm 0 W/m2
22:33 42.6 °F /  5.9 °C 35.9 °F /  2.2 °C 30.13 in /  1020.2 hPa WNW 8.0 mph /  12.9 km/h 13.0 mph /  20.9 km/h 77 % 0.00 in /  0 mm 0 W/m2
22:38 42.6 °F /  5.9 °C 35.9 °F /  2.2 °C 30.13 in /  1020.2 hPa WNW 9.0 mph /  14.5 km/h 19.0 mph /  30.6 km/h 77 % 0.00 in /  0 mm 0 W/m2
22:43 42.6 °F /  5.9 °C 35.9 °F /  2.2 °C 30.12 in /  1019.9 hPa WNW 9.0 mph /  14.5 km/h 19.0 mph /  30.6 km/h 77 % 0.00 in /  0 mm 0 W/m2
22:48 42.8 °F /  6 °C 36.4 °F /  2.4 °C 30.13 in /  1020.2 hPa West 7.0 mph /  11.3 km/h 12.0 mph /  19.3 km/h 78 % 0.00 in /  0 mm 0 W/m2
22:58 42.8 °F /  6 °C 36.7 °F /  2.6 °C 30.13 in /  1020.2 hPa West 6.0 mph /  9.7 km/h 12.0 mph /  19.3 km/h 79 % 0.00 in /  0 mm 0 W/m2
23:03 42.8 °F /  6 °C 36.7 °F /  2.6 °C 30.13 in /  1020.2 hPa West 7.0 mph /  11.3 km/h 12.0 mph /  19.3 km/h 79 % 0.00 in /  0 mm 0 W/m2
23:08 42.8 °F /  6 °C 36.7 °F /  2.6 °C 30.13 in /  1020.2 hPa West 7.0 mph /  11.3 km/h 15.0 mph /  24.1 km/h 79 % 0.00 in /  0 mm 0 W/m2
23:13 42.8 °F /  6 °C 36.7 °F /  2.6 °C 30.13 in /  1020.2 hPa WNW 7.0 mph /  11.3 km/h 15.0 mph /  24.1 km/h 79 % 0.00 in /  0 mm 0 W/m2
23:18 43.0 °F /  6.1 °C 36.9 °F /  2.7 °C 30.13 in /  1020.2 hPa WNW 9.0 mph /  14.5 km/h 13.0 mph /  20.9 km/h 79 % 0.00 in /  0 mm 0 W/m2
23:23 43.0 °F /  6.1 °C 36.9 °F /  2.7 °C 30.13 in /  1020.2 hPa WNW 8.0 mph /  12.9 km/h 13.0 mph /  20.9 km/h 79 % 0.00 in /  0 mm 0 W/m2
23:28 43.0 °F /  6.1 °C 36.9 °F /  2.7 °C 30.13 in /  1020.2 hPa WNW 7.0 mph /  11.3 km/h 12.0 mph /  19.3 km/h 79 % 0.00 in /  0 mm 0 W/m2
23:33 43.0 °F /  6.1 °C 36.9 °F /  2.7 °C 30.13 in /  1020.2 hPa WNW 7.0 mph /  11.3 km/h 12.0 mph /  19.3 km/h 79 % 0.00 in /  0 mm 0 W/m2
23:38 43.0 °F /  6.1 °C 36.9 °F /  2.7 °C 30.13 in /  1020.2 hPa WNW 8.0 mph /  12.9 km/h 14.0 mph /  22.5 km/h 79 % 0.00 in /  0 mm 0 W/m2
23:43 43.0 °F /  6.1 °C 36.9 °F /  2.7 °C 30.13 in /  1020.2 hPa WNW 9.0 mph /  14.5 km/h 14.0 mph /  22.5 km/h 79 % 0.00 in /  0 mm 0 W/m2
23:48 43.0 °F /  6.1 °C 36.9 °F /  2.7 °C 30.13 in /  1020.2 hPa WNW 8.0 mph /  12.9 km/h 13.0 mph /  20.9 km/h 79 % 0.00 in /  0 mm 0 W/m2
23:53 43.0 °F /  6.1 °C 36.9 °F /  2.7 °C 30.13 in /  1020.2 hPa WNW 7.0 mph /  11.3 km/h 15.0 mph /  24.1 km/h 79 % 0.00 in /  0 mm 0 W/m2
23:58 43.0 °F /  6.1 °C 36.9 °F /  2.7 °C 30.13 in /  1020.2 hPa West 8.0 mph /  12.9 km/h 15.0 mph /  24.1 km/h 79 % 0.00 in /  0 mm 0 W/m2
Delerius-Weather
Compliments of Weather Underground - 2.25 mb

Data updates at regular intervals.